Latest Weather Observations for Mount Boyce

IDN60801

Issued at 2:35 pm EST Wednesday 20 August 2014 (issued every 30 minutes, with the page automatically refreshed every 10 minutes)

About weather observations | Map of weather stations | Latest weather observations for NSW | Other Formats
Station Details ID: 063292 Name: MOUNT BOYCE AWS Lat: -33.62 Lon: 150.27 Height: 1080.0 m
Data from the previous 72 hours. | See also: Recent months at Mount Boyce
Date/Time
EST
Temp
°C
App
Temp
°C
Dew
Point
Rel
Hum
%
Delta-T
°C
Wind Press
QNH
hPa
Press
MSL
hPa
Rain
since 9 am
mm
Dir
 
Spd
km/h
Gust
km/h
Spd
kts
Gust
kts
20/02:30pm 10.4 7.2 3.2 61 3.3 S 9 13 5 7 - - 0.0
20/02:00pm 11.1 8.6 3.6 60 3.5 NNE 6 11 3 6 - - 0.0
20/01:30pm 11.9 9.0 4.4 60 3.6 E 9 20 5 11 - - 0.0
20/01:00pm 8.5 5.7 2.3 65 2.8 ESE 6 9 3 5 - - 0.0
20/12:30pm 10.1 7.1 4.3 67 2.8 E 9 15 5 8 - - 0.0
20/12:00pm 8.0 4.7 2.7 69 2.4 SSE 9 15 5 8 - - 0.0
20/11:30am 8.3 5.2 3.8 73 2.1 ESE 9 20 5 11 - - 0.0
20/11:00am 6.9 3.8 3.5 79 1.5 ESE 9 17 5 9 - - 0.0
20/10:30am 6.6 3.5 3.6 81 1.4 SE 9 15 5 8 - - 0.0
20/10:00am 5.3 2.0 2.5 82 1.2 ESE 9 15 5 8 - - 0.0
20/09:34am 5.6 2.0 2.9 83 1.2 SE 11 19 6 10 - - 0.0
20/09:30am 5.5 1.9 2.7 82 1.2 SE 11 19 6 10 - - 0.0
20/09:15am 5.4 2.6 3.1 85 1.0 SSE 7 17 4 9 - - 0.0
20/09:00am 5.1 2.0 3.4 89 0.8 SSE 9 17 5 9 - - 2.2
20/08:58am 5.0 1.8 3.2 88 0.8 SSE 9 19 5 10 - - 2.2
20/08:33am 4.7 1.1 3.2 90 0.7 SSE 11 20 6 11 - - 2.2
20/08:30am 4.5 1.3 3.2 91 0.6 SSE 9 20 5 11 - - 2.2
20/08:07am 3.7 0.8 2.7 93 0.4 S 7 15 4 8 - - 2.2
20/08:03am 3.6 0.3 2.4 92 0.5 S 9 15 5 8 - - 2.2
20/08:00am 3.7 0.8 2.5 92 0.5 S 7 13 4 7 - - 2.2
20/07:59am 3.6 0.7 2.4 92 0.5 S 7 15 4 8 - - 2.2
20/07:47am 3.4 0.1 2.4 93 0.4 S 9 17 5 9 - - 2.2
20/07:30am 3.1 -0.3 2.1 93 0.4 S 9 17 5 9 - - 2.2
20/07:00am 2.7 -0.7 2.0 95 0.3 S 9 13 5 7 - - 2.2
20/06:49am 2.4 -1.1 1.5 94 0.4 S 9 15 5 8 - - 2.2
20/06:30am 2.7 -1.1 1.7 93 0.4 S 11 17 6 9 - - 2.2
20/06:22am 2.7 -0.8 1.5 92 0.5 S 9 17 5 9 - - 2.2
20/06:10am 2.7 -0.4 1.4 91 0.5 S 7 13 4 7 - - 2.2
20/06:00am 2.8 -1.1 1.3 90 0.6 SSE 11 17 6 9 - - 2.2
20/05:59am 2.8 -1.1 1.3 90 0.6 SSE 11 17 6 9 - - 2.2
20/05:30am 3.0 -0.5 1.1 87 0.8 S 9 17 5 9 - - 2.2
20/05:00am 3.0 -0.9 1.1 87 0.8 S 11 15 6 8 - - 2.2
20/04:30am 3.3 -0.6 1.0 85 0.9 S 11 17 6 9 - - 2.2
20/04:00am 2.9 -0.6 1.0 87 0.8 S 9 17 5 9 - - 2.2
20/03:30am 2.9 -1.4 1.0 87 0.8 SSW 13 20 7 11 - - 2.2
20/03:00am 2.7 -1.6 0.9 88 0.7 S 13 19 7 10 - - 2.2
20/02:30am 2.4 -2.0 0.6 88 0.7 S 13 20 7 11 - - 2.2
20/02:00am 2.4 -1.9 0.8 89 0.7 S 13 24 7 13 - - 2.2
20/01:53am 2.4 -1.9 0.8 89 0.7 S 13 20 7 11 - - 2.2
20/01:30am 2.6 -1.7 1.0 89 0.7 S 13 24 7 13 - - 2.2
20/01:19am 2.6 -1.3 1.0 89 0.7 S 11 20 6 11 - - 2.2
20/01:00am 2.7 -2.0 0.9 88 0.7 S 15 24 8 13 - - 2.2
20/12:30am 2.7 -2.0 0.9 88 0.7 S 15 20 8 11 - - 2.2
20/12:00am 2.9 -1.4 1.3 89 0.7 S 13 26 7 14 - - 2.2
 
Date/Time
EST
Temp
°C
App
Temp
°C
Dew
Point
Rel
Hum
%
Delta-T
°C
Wind Press
QNH
hPa
Press
MSL
hPa
Rain
since 9 am
mm
Dir
 
Spd
km/h
Gust
km/h
Spd
kts
Gust
kts
19/11:30pm 2.6 -1.7 1.1 90 0.6 SW 13 24 7 13 - - 2.2
19/11:00pm 3.0 -1.2 1.5 90 0.6 SW 13 22 7 12 - - 2.2
19/10:54pm 3.1 -1.1 1.5 89 0.7 SSW 13 24 7 13 - - 2.2
19/10:30pm 3.4 0.6 1.9 90 0.6 SW 6 13 3 7 - - 2.2
19/10:24pm 3.6 0.6 2.1 90 0.6 WSW 7 15 4 8 - - 2.2
19/10:00pm 3.6 -0.6 1.8 88 0.8 S 13 26 7 14 - - 2.2
19/09:30pm 3.8 -0.8 1.7 86 0.9 SSW 15 26 8 14 - - 2.2
19/09:00pm 4.2 -0.3 2.2 87 0.9 S 15 24 8 13 - - 2.2
19/08:30pm 4.4 0.3 2.3 86 0.9 SSW 13 24 7 13 - - 2.2
19/08:00pm 4.6 0.2 2.6 87 0.9 SSW 15 26 8 14 - - 2.2
19/07:30pm 4.8 0.9 3.5 91 0.6 SSW 13 20 7 11 - - 2.2
19/07:00pm 5.2 0.6 3.7 90 0.7 S 17 28 9 15 - - 2.2
19/06:30pm 5.1 0.1 3.6 90 0.7 S 19 35 10 19 - - 2.2
19/06:18pm 5.2 1.0 4.0 92 0.5 S 15 24 8 13 - - 2.2
19/06:00pm 5.2 0.7 4.2 93 0.5 S 17 30 9 16 - - 2.2
19/05:34pm 5.4 1.0 4.5 94 0.4 S 17 28 9 15 - - 2.2
19/05:30pm 5.5 1.1 4.8 95 0.3 SSW 17 26 9 14 - - 2.2
19/05:29pm 5.5 1.1 4.8 95 0.3 SSW 17 26 9 14 - - 2.2
19/05:20pm 5.6 1.2 4.9 95 0.3 SSW 17 28 9 15 - - 2.2
19/05:00pm 5.8 2.6 4.9 94 0.4 S 11 20 6 11 - - 2.0
19/04:53pm 5.9 2.7 4.9 93 0.5 SSE 11 24 6 13 - - 1.8
19/04:43pm 6.2 2.6 4.8 91 0.7 S 13 22 7 12 - - 1.6
19/04:30pm 6.6 2.9 4.6 87 0.9 S 13 24 7 13 - - 1.6
19/04:00pm 6.6 3.3 4.8 88 0.8 SSW 11 22 6 12 - - 1.6
19/03:32pm 6.3 2.3 4.9 91 0.7 S 15 28 8 15 - - 1.6
19/03:30pm 6.2 2.2 4.8 91 0.7 S 15 28 8 15 - - 1.6
19/03:21pm 6.2 1.8 5.0 92 0.6 S 17 26 9 14 - - 1.6
19/03:00pm 6.1 2.2 5.2 94 0.4 SW 15 30 8 16 - - 1.6
19/02:47pm 6.6 2.3 5.2 91 0.7 SSW 17 32 9 17 - - 1.4
19/02:46pm 6.6 2.3 5.2 91 0.7 SSW 17 32 9 17 - - 1.4
19/02:39pm 7.0 2.3 5.3 89 0.8 SSW 19 32 10 17 - - 1.4
19/02:30pm 7.0 3.1 5.5 90 0.7 SSW 15 28 8 15 - - 1.4
19/02:00pm 7.1 3.0 6.4 95 0.3 SSW 17 30 9 16 - - 1.4
19/01:56pm 6.9 2.4 6.2 95 0.3 SW 19 30 10 16 - - 1.4
19/01:43pm 6.9 2.8 6.2 95 0.3 SSW 17 28 9 15 - - 1.4
19/01:35pm 7.3 3.7 6.6 95 0.3 SSW 15 26 8 14 - - 1.4
19/01:30pm 7.5 3.9 6.8 95 0.3 S 15 26 8 14 - - 1.4
19/01:14pm 6.7 2.9 6.0 95 0.3 SSW 15 28 8 15 - - 1.2
19/01:00pm 6.9 3.2 6.2 95 0.3 SW 15 24 8 13 - - 1.2
19/12:52pm 7.0 3.3 6.3 95 0.3 S 15 28 8 15 - - 1.2
19/12:35pm 6.6 1.9 5.9 95 0.3 S 20 30 11 16 - - 1.2
19/12:30pm 7.0 3.3 6.4 96 0.3 SSW 15 24 8 13 - - 1.2
19/12:13pm 6.7 1.3 6.3 97 0.2 S 24 37 13 20 - - 1.2
19/12:00pm 6.2 2.0 5.6 96 0.3 SSW 17 26 9 14 - - 1.2
19/11:34am 7.4 3.7 6.2 92 0.6 S 15 26 8 14 - - 0.2
19/11:30am 7.4 3.7 6.3 93 0.5 S 15 26 8 14 - - 0.2
19/11:23am 7.0 3.3 6.3 95 0.3 SSW 15 26 8 14 - - 0.2
19/11:00am 6.6 2.4 5.7 94 0.4 SW 17 30 9 16 - - 0.2
19/10:40am 6.6 2.3 5.2 91 0.7 SSW 17 26 9 14 - - 0.0
19/10:30am 6.9 2.9 4.9 87 0.9 SSW 15 30 8 16 - - 0.0
19/10:00am 6.5 2.2 5.3 92 0.6 SSW 17 26 9 14 - - 0.0
19/09:30am 5.9 2.1 5.6 98 0.1 SSW 15 28 8 15 - - 0.0
19/09:17am 6.0 1.2 5.7 98 0.1 SSW 20 32 11 17 - - 0.0
19/09:00am 5.8 1.6 5.5 98 0.1 SSW 17 37 9 20 - - 23.0
19/08:52am 5.6 1.3 5.3 98 0.1 SSW 17 30 9 16 - - 23.0
19/08:30am 5.5 0.8 5.2 98 0.1 SSW 19 37 10 20 - - 23.0
19/08:00am 5.6 2.1 5.3 98 0.1 SSW 13 32 7 17 - - 22.6
19/07:30am 5.5 1.9 5.2 98 0.1 SSW 13 20 7 11 - - 22.0
19/07:17am 5.5 1.2 5.2 98 0.1 S 17 33 9 18 - - 21.6
19/07:01am 5.5 1.6 5.2 98 0.1 S 15 28 8 15 - - 21.6
19/07:00am 5.5 1.9 5.2 98 0.1 S 13 28 7 15 - - 21.6
19/06:30am 5.4 0.7 5.1 98 0.1 SSW 19 30 10 16 - - 21.4
19/06:00am 5.4 1.1 5.1 98 0.1 SSW 17 28 9 15 - - 21.2
19/05:30am 5.5 0.8 5.2 98 0.1 SSW 19 35 10 19 - - 20.8
19/05:24am 5.5 0.8 5.2 98 0.1 S 19 41 10 22 - - 20.8
19/05:14am 5.5 1.2 5.2 98 0.1 S 17 32 9 17 - - 20.6
19/05:00am 5.5 0.6 5.2 98 0.1 SSW 20 43 11 23 - - 20.6
19/04:30am 5.6 0.7 5.3 98 0.1 SSW 20 39 11 21 - - 20.2
19/04:00am 5.7 0.5 5.4 98 0.1 SW 22 39 12 21 - - 19.6
19/03:30am 5.6 0.7 5.3 98 0.1 SW 20 32 11 17 - - 19.4
19/03:00am 5.7 0.9 5.4 98 0.1 SW 20 39 11 21 - - 19.0
19/02:30am 5.6 0.7 5.3 98 0.1 SW 20 35 11 19 - - 18.8
19/02:00am 5.6 1.7 5.3 98 0.1 SW 15 26 8 14 - - 18.4
19/01:30am 5.7 0.9 5.4 98 0.1 SW 20 32 11 17 - - 17.8
19/01:00am 5.7 1.1 5.4 98 0.1 SW 19 32 10 17 - - 17.8
19/12:30am 5.6 1.3 5.3 98 0.1 SW 17 32 9 17 - - 17.6
19/12:00am 5.6 0.9 5.3 98 0.1 SW 19 32 10 17 - - 17.2
 
Date/Time
EST
Temp
°C
App
Temp
°C
Dew
Point
Rel
Hum
%
Delta-T
°C
Wind Press
QNH
hPa
Press
MSL
hPa
Rain
since 9 am
mm
Dir
 
Spd
km/h
Gust
km/h
Spd
kts
Gust
kts
18/11:30pm 5.6 0.3 5.2 97 0.2 SW 22 35 12 19 - - 16.8
18/11:00pm 5.8 0.2 5.2 96 0.3 SW 24 37 13 20 - - 16.6
18/10:30pm 5.7 0.0 5.1 96 0.3 SW 24 39 13 21 - - 16.4
18/10:00pm 5.9 0.7 5.3 96 0.3 SW 22 33 12 18 - - 16.0
18/09:30pm 6.0 0.0 5.1 94 0.4 SW 26 43 14 23 - - 15.8
18/09:25pm 6.1 0.1 5.2 94 0.4 SW 26 43 14 23 - - 15.6
18/09:00pm 6.2 0.6 5.3 94 0.4 SW 24 39 13 21 - - 15.6
18/08:56pm 6.1 0.8 5.2 94 0.4 SW 22 39 12 21 - - 15.6
18/08:30pm 6.0 0.3 5.1 94 0.4 WSW 24 43 13 23 - - 15.2
18/08:29pm 6.0 0.3 5.1 94 0.4 WSW 24 43 13 23 - - 15.2
18/08:27pm 6.0 0.7 5.1 94 0.4 WSW 22 43 12 23 - - 15.2
18/08:00pm 6.0 1.1 5.0 93 0.5 WSW 20 30 11 16 - - 15.0
18/07:30pm 6.2 1.3 5.0 92 0.6 WSW 20 41 11 22 - - 14.6
18/07:29pm 6.1 1.2 4.9 92 0.6 WSW 20 41 11 22 - - 14.4
18/07:00pm 6.1 0.8 4.9 92 0.6 SW 22 39 12 21 - - 14.4
18/06:30pm 6.3 0.7 5.3 93 0.5 WSW 24 46 13 25 - - 14.4
18/06:00pm 6.5 0.8 5.1 91 0.7 WSW 24 37 13 20 - - 14.0
18/05:41pm 6.6 0.2 5.2 91 0.7 SW 28 48 15 26 - - 14.0
18/05:30pm 6.5 0.5 5.3 92 0.6 SW 26 43 14 23 - - 14.0
18/05:13pm 6.5 0.5 5.5 93 0.5 SW 26 43 14 23 - - 14.0
18/05:00pm 6.4 0.9 5.7 95 0.3 SW 24 41 13 22 - - 14.0
18/04:36pm 6.3 0.4 5.7 96 0.3 SW 26 39 14 21 - - 14.0
18/04:30pm 6.4 0.5 5.8 96 0.3 SW 26 43 14 23 - - 14.0
18/04:20pm 6.3 0.0 5.9 97 0.2 SW 28 44 15 24 - - 14.0
18/04:00pm 6.3 1.6 6.0 98 0.1 SW 20 35 11 19 - - 14.0
18/03:45pm 6.4 0.9 6.1 98 0.1 SW 24 43 13 23 - - 14.0
18/03:30pm 6.5 1.8 6.2 98 0.1 WSW 20 33 11 18 - - 14.0
18/03:00pm 6.5 1.1 6.2 98 0.1 SW 24 37 13 20 - - 13.8
18/02:30pm 6.7 1.7 6.4 98 0.1 SW 22 39 12 21 - - 13.2
18/02:00pm 6.8 1.8 6.5 98 0.1 SSW 22 37 12 20 - - 12.8
18/01:58pm 6.9 1.9 6.6 98 0.1 SSW 22 37 12 20 - - 12.8
18/01:55pm 7.0 2.4 6.7 98 0.1 SW 20 37 11 20 - - 12.8
18/01:30pm 6.6 1.2 6.3 98 0.1 SW 24 41 13 22 - - 12.6
18/01:00pm 6.6 1.6 6.3 98 0.1 SW 22 44 12 24 - - 12.2
18/12:58pm 6.7 1.7 6.4 98 0.1 SW 22 41 12 22 - - 12.2
18/12:52pm 6.5 1.1 6.2 98 0.1 SW 24 41 13 22 - - 12.2
18/12:39pm 6.5 2.0 6.2 98 0.1 SW 19 33 10 18 - - 12.2
18/12:36pm 6.5 2.4 6.2 98 0.1 SW 17 33 9 18 - - 12.2
18/12:30pm 6.4 1.7 6.1 98 0.1 SW 20 30 11 16 - - 12.2
18/12:00pm 6.7 0.9 6.4 98 0.1 SSW 26 48 14 26 - - 11.8
18/11:30am 6.3 0.8 6.0 98 0.1 SW 24 39 13 21 - - 11.0
18/11:00am 6.3 1.2 6.0 98 0.1 SW 22 35 12 19 - - 9.8
18/10:51am 6.2 -0.1 5.9 98 0.1 SW 28 46 15 25 - - 9.4
18/10:30am 6.1 0.6 5.8 98 0.1 SW 24 39 13 21 - - 8.6
18/10:25am 6.1 -0.2 5.8 98 0.1 SSW 28 46 15 25 - - 8.4
18/10:00am 6.2 1.5 5.9 98 0.1 SSW 20 37 11 20 - - 6.4
18/09:30am 6.1 2.3 5.8 98 0.1 SSW 15 28 8 15 - - 4.8
18/09:00am 6.1 1.9 5.8 98 0.1 SSW 17 30 9 16 - - 26.6
18/08:39am 5.7 2.6 5.4 98 0.1 S 11 20 6 11 - - 23.6
18/08:30am 5.6 2.8 5.3 98 0.1 SSE 9 20 5 11 - - 22.4
18/08:09am 5.6 1.3 5.3 98 0.1 S 17 28 9 15 - - 20.6
18/08:00am 6.1 2.3 6.0 99 0.0 SSE 15 26 8 14 - - 19.6
18/07:59am 6.2 2.5 6.1 99 0.0 SSE 15 26 8 14 - - 19.6
18/07:58am 6.2 2.8 6.1 99 0.0 SSE 13 26 7 14 - - 19.4
18/07:30am 6.4 2.3 6.3 99 0.0 SE 17 28 9 15 - - 16.2
18/07:00am 6.4 2.7 6.3 99 0.0 SE 15 26 8 14 - - 16.2
18/06:30am 6.0 1.4 5.7 98 0.1 S 19 41 10 22 - - 16.2
18/06:00am 4.8 0.7 4.5 98 0.1 W 15 20 8 11 - - 14.8
18/05:30am 4.8 -0.2 4.5 98 0.1 W 20 26 11 14 - - 13.4
18/05:00am 4.7 -0.1 4.4 98 0.1 W 19 32 10 17 - - 12.0
18/04:30am 4.8 -0.2 4.5 98 0.1 W 20 28 11 15 - - 10.8
18/04:00am 4.5 0.0 4.2 98 0.1 W 17 22 9 12 - - 8.0
18/03:30am 4.6 -0.8 4.3 98 0.1 WSW 22 33 12 18 - - 6.2
18/03:00am 4.4 0.3 4.1 98 0.1 W 15 20 8 11 - - 5.8
18/02:30am 4.3 -0.2 4.0 98 0.1 W 17 20 9 11 - - 5.0
18/02:00am 4.3 -0.6 4.0 98 0.1 W 19 22 10 12 - - 5.0
18/01:30am 4.2 -0.7 3.9 98 0.1 W 19 24 10 13 - - 4.6
18/01:00am 4.1 -1.1 3.8 98 0.1 W 20 28 11 15 - - 4.2
18/12:53am 4.1 -1.4 3.8 98 0.1 W 22 30 12 16 - - 4.2
18/12:30am 4.1 -0.9 3.7 97 0.2 W 19 26 10 14 - - 4.0
18/12:00am 4.2 -0.9 3.3 94 0.4 W 19 28 10 15 - - 3.8
 
Date/Time
EST
Temp
°C
App
Temp
°C
Dew
Point
Rel
Hum
%
Delta-T
°C
Wind Press
QNH
hPa
Press
MSL
hPa
Rain
since 9 am
mm
Dir
 
Spd
km/h
Gust
km/h
Spd
kts
Gust
kts
17/11:55pm 4.3 -0.7 3.4 94 0.4 W 19 24 10 13 - - 3.8
17/11:52pm 4.4 -0.6 3.5 94 0.4 W 19 24 10 13 - - 3.8
17/11:30pm 4.3 -0.7 3.4 94 0.4 W 19 24 10 13 - - 3.8
17/11:24pm 4.3 -0.9 3.4 94 0.4 W 20 28 11 15 - - 3.8
17/11:00pm 4.3 -0.9 3.3 93 0.4 W 20 28 11 15 - - 3.8
17/10:59pm 4.3 -0.9 3.3 93 0.4 W 20 28 11 15 - - 3.8
17/10:30pm 4.3 -1.7 3.3 93 0.4 WSW 24 32 13 17 - - 3.8
17/10:00pm 4.3 -1.7 3.1 92 0.5 WSW 24 32 13 17 - - 3.8
17/09:30pm 4.7 -1.3 3.2 90 0.7 WSW 24 32 13 17 - - 3.8
17/09:00pm 5.0 -0.5 3.8 92 0.5 W 22 32 12 17 - - 3.8
17/08:30pm 5.1 -1.2 3.9 92 0.5 W 26 37 14 20 - - 3.8
17/08:00pm 5.1 -1.1 4.1 93 0.5 W 26 39 14 21 - - 3.8
17/07:30pm 5.3 -0.9 4.3 93 0.5 W 26 37 14 20 - - 3.8
17/07:00pm 5.5 -0.7 4.5 93 0.5 W 26 37 14 20 - - 3.8
17/06:58pm 5.5 -0.7 4.5 93 0.5 W 26 37 14 20 - - 3.8
17/06:30pm 5.6 -0.1 4.9 95 0.3 W 24 32 13 17 - - 3.8
17/06:00pm 5.7 1.0 5.3 97 0.2 W 19 28 10 15 - - 3.8
17/05:45pm 5.8 1.2 5.4 97 0.2 WSW 19 26 10 14 - - 3.8
17/05:30pm 5.9 1.3 5.5 97 0.2 WSW 19 24 10 13 - - 3.8
17/05:00pm 5.9 0.6 5.0 94 0.4 WSW 22 33 12 18 - - 3.8
17/04:30pm 6.3 1.4 4.9 91 0.7 WSW 20 30 11 16 - - 3.6
17/04:00pm 7.1 2.2 5.1 87 0.9 WSW 20 28 11 15 - - 3.4
17/03:30pm 7.6 3.4 5.9 89 0.8 SW 17 26 9 14 - - 3.4
17/03:00pm 8.8 4.2 5.7 81 1.5 WSW 19 28 10 15 - - 3.4

Other Formats:

Comma delimited format used in spreadsheet applications
http://www.bom.gov.au/fwo/IDN60801/IDN60801.94743.axf

JavaScript Object Notation format (JSON) in row-major order
http://www.bom.gov.au/fwo/IDN60801/IDN60801.94743.json